Hovedside
METAR-TAF:

METAR-TAF

Lufthavner :

Haugesund lufthavn. Karmøy

Haugesund, Norge

breddegrad: 59-21N, lengdegrad: 005-13E, høyde over havet: 2 m

Gjeldene værobservasjon

Denne rapporten ble laget for 21 minutter siden, klokken 18:50 UTC
Vind 2 kt fra Sørøst
Temperatur -2°C
Luftfuktighet 86%
Trykk 1030 hPa
Sikt 10 km eller mer
ingen skyer under 1500 m og ingen bygeskyer

METAR: ENHD 211850Z 13002KT CAVOK M02/M04 Q1030

Tid: 20:11 (19:11 UTC)

Varsel

Denne rapporten ble laget for 2 timer og 11 minutter siden, klokken 17:00 UTC
Varsel gyldig fra 21. klokken 18 UTC til 21. klokken 22 UTC
Vind 6 kt fra Øst-sørøst
Sikt 10 km eller mer
ingen skyer under 1500 m og ingen bygeskyer

TAF: ENHD 211700Z 2118/2122 12006KT CAVOK

Værobservasjoner og værvarsel for over 4000 flyplasser (METAR- og TAF-rapporter).

Tilgjengelige stasjoner er representert av de røde og gule prikkene på kartet.

Hold musepekeren over prikken for å se navnet på stasjonen.

Klikk så for å se værobservasjoner og -varsler.

For å forandre kartet kan du klikke på den grønne knappen med svart kryss for å zoome inn, på den grønne knappen med strek for å zoome ut, eller på de grønne pilene for å se tilstøtende kart.


METAR-TAF: